sensor_id;sensor_type;location;lat;lon;timestamp;temperature;humidity
8896;DHT22;4484;48.928;10.066;2023-07-20T00:00:57;16.40;99.90
8896;DHT22;4484;48.928;10.066;2023-07-20T00:03:23;16.40;99.90
8896;DHT22;4484;48.928;10.066;2023-07-20T00:05:51;16.40;99.90
8896;DHT22;4484;48.928;10.066;2023-07-20T00:08:18;16.40;99.90
8896;DHT22;4484;48.928;10.066;2023-07-20T00:10:45;16.50;99.90
8896;DHT22;4484;48.928;10.066;2023-07-20T00:13:12;16.50;99.90
8896;DHT22;4484;48.928;10.066;2023-07-20T00:15:39;16.50;99.90
8896;DHT22;4484;48.928;10.066;2023-07-20T00:18:06;16.60;99.90
8896;DHT22;4484;48.928;10.066;2023-07-20T00:20:33;16.60;99.90
8896;DHT22;4484;48.928;10.066;2023-07-20T00:23:00;16.70;99.90
8896;DHT22;4484;48.928;10.066;2023-07-20T00:25:27;16.70;99.90
8896;DHT22;4484;48.928;10.066;2023-07-20T00:27:54;16.70;99.90
8896;DHT22;4484;48.928;10.066;2023-07-20T00:30:21;16.80;99.90
8896;DHT22;4484;48.928;10.066;2023-07-20T00:32:47;16.80;99.90
8896;DHT22;4484;48.928;10.066;2023-07-20T00:35:15;16.80;99.90
8896;DHT22;4484;48.928;10.066;2023-07-20T00:37:42;16.90;99.90
8896;DHT22;4484;48.928;10.066;2023-07-20T00:40:09;16.90;99.90
8896;DHT22;4484;48.928;10.066;2023-07-20T00:42:36;16.90;99.90
8896;DHT22;4484;48.928;10.066;2023-07-20T00:45:03;17.00;99.90
8896;DHT22;4484;48.928;10.066;2023-07-20T00:47:30;16.90;99.90
8896;DHT22;4484;48.928;10.066;2023-07-20T00:49:58;17.00;99.90
8896;DHT22;4484;48.928;10.066;2023-07-20T00:52:25;17.00;99.90
8896;DHT22;4484;48.928;10.066;2023-07-20T00:54:54;17.00;99.90
8896;DHT22;4484;48.928;10.066;2023-07-20T00:57:24;17.00;99.90
8896;DHT22;4484;48.928;10.066;2023-07-20T00:59:52;17.00;99.90
8896;DHT22;4484;48.928;10.066;2023-07-20T01:02:20;17.00;99.90
8896;DHT22;4484;48.928;10.066;2023-07-20T01:04:47;17.00;99.90
8896;DHT22;4484;48.928;10.066;2023-07-20T01:07:25;16.90;99.90
8896;DHT22;4484;48.928;10.066;2023-07-20T01:12:46;16.90;99.90
8896;DHT22;4484;48.928;10.066;2023-07-20T01:15:13;16.80;99.90
8896;DHT22;4484;48.928;10.066;2023-07-20T01:17:40;16.80;99.90
8896;DHT22;4484;48.928;10.066;2023-07-20T01:20:09;16.80;99.90
8896;DHT22;4484;48.928;10.066;2023-07-20T01:31:33;16.60;99.90
8896;DHT22;4484;48.928;10.066;2023-07-20T01:34:02;16.50;99.90
8896;DHT22;4484;48.928;10.066;2023-07-20T01:36:35;16.40;99.90
8896;DHT22;4484;48.928;10.066;2023-07-20T01:39:03;16.40;99.90
8896;DHT22;4484;48.928;10.066;2023-07-20T01:41:31;16.30;99.90
8896;DHT22;4484;48.928;10.066;2023-07-20T01:43:58;16.20;99.90
8896;DHT22;4484;48.928;10.066;2023-07-20T01:46:26;16.20;99.90
8896;DHT22;4484;48.928;10.066;2023-07-20T01:48:54;16.20;99.90
8896;DHT22;4484;48.928;10.066;2023-07-20T01:51:21;16.00;99.90
8896;DHT22;4484;48.928;10.066;2023-07-20T01:53:48;16.00;99.90
8896;DHT22;4484;48.928;10.066;2023-07-20T01:56:15;16.00;99.90
8896;DHT22;4484;48.928;10.066;2023-07-20T01:58:42;15.90;99.90
8896;DHT22;4484;48.928;10.066;2023-07-20T02:01:09;15.90;99.90
8896;DHT22;4484;48.928;10.066;2023-07-20T02:03:36;15.90;99.90
8896;DHT22;4484;48.928;10.066;2023-07-20T02:06:03;15.90;99.90
8896;DHT22;4484;48.928;10.066;2023-07-20T02:08:30;15.90;99.90
8896;DHT22;4484;48.928;10.066;2023-07-20T02:10:57;15.90;99.90
8896;DHT22;4484;48.928;10.066;2023-07-20T02:13:24;15.90;99.90
8896;DHT22;4484;48.928;10.066;2023-07-20T02:15:51;15.90;99.90
8896;DHT22;4484;48.928;10.066;2023-07-20T02:18:18;15.90;99.90
8896;DHT22;4484;48.928;10.066;2023-07-20T02:20:44;15.90;99.90
8896;DHT22;4484;48.928;10.066;2023-07-20T02:23:11;16.00;99.90
8896;DHT22;4484;48.928;10.066;2023-07-20T02:25:38;15.90;99.90
8896;DHT22;4484;48.928;10.066;2023-07-20T02:28:07;15.90;99.90
8896;DHT22;4484;48.928;10.066;2023-07-20T02:30:38;15.90;99.90
8896;DHT22;4484;48.928;10.066;2023-07-20T02:33:06;15.80;99.90
8896;DHT22;4484;48.928;10.066;2023-07-20T02:35:33;15.80;99.90
8896;DHT22;4484;48.928;10.066;2023-07-20T02:38:00;15.80;99.90
8896;DHT22;4484;48.928;10.066;2023-07-20T02:40:27;15.80;99.90
8896;DHT22;4484;48.928;10.066;2023-07-20T02:42:54;15.70;99.90
8896;DHT22;4484;48.928;10.066;2023-07-20T02:45:21;15.70;99.90
8896;DHT22;4484;48.928;10.066;2023-07-20T02:47:48;15.60;99.90
8896;DHT22;4484;48.928;10.066;2023-07-20T02:50:15;15.60;99.90
8896;DHT22;4484;48.928;10.066;2023-07-20T02:52:42;15.60;99.90
8896;DHT22;4484;48.928;10.066;2023-07-20T02:55:09;15.50;99.90
8896;DHT22;4484;48.928;10.066;2023-07-20T02:57:36;15.50;99.90
8896;DHT22;4484;48.928;10.066;2023-07-20T03:00:04;15.40;99.90
8896;DHT22;4484;48.928;10.066;2023-07-20T03:02:32;15.40;99.90
8896;DHT22;4484;48.928;10.066;2023-07-20T03:04:59;15.30;99.90
8896;DHT22;4484;48.928;10.066;2023-07-20T03:07:29;15.30;99.90
8896;DHT22;4484;48.928;10.066;2023-07-20T03:09:56;15.20;99.90
8896;DHT22;4484;48.928;10.066;2023-07-20T03:12:23;15.20;99.90
8896;DHT22;4484;48.928;10.066;2023-07-20T03:14:51;15.10;99.90
8896;DHT22;4484;48.928;10.066;2023-07-20T03:17:18;15.10;99.90
8896;DHT22;4484;48.928;10.066;2023-07-20T03:19:45;15.00;99.90
8896;DHT22;4484;48.928;10.066;2023-07-20T03:22:12;15.00;99.90
8896;DHT22;4484;48.928;10.066;2023-07-20T03:24:39;15.00;99.90
8896;DHT22;4484;48.928;10.066;2023-07-20T03:27:06;14.90;99.90
8896;DHT22;4484;48.928;10.066;2023-07-20T03:29:33;14.90;99.90
8896;DHT22;4484;48.928;10.066;2023-07-20T03:32:00;14.80;99.90
8896;DHT22;4484;48.928;10.066;2023-07-20T03:34:27;14.80;99.90
8896;DHT22;4484;48.928;10.066;2023-07-20T03:36:54;14.80;99.90
8896;DHT22;4484;48.928;10.066;2023-07-20T03:39:22;14.70;99.90
8896;DHT22;4484;48.928;10.066;2023-07-20T03:41:49;14.60;99.90
8896;DHT22;4484;48.928;10.066;2023-07-20T03:44:16;14.60;99.90
8896;DHT22;4484;48.928;10.066;2023-07-20T03:46:43;14.50;99.90
8896;DHT22;4484;48.928;10.066;2023-07-20T03:49:11;14.50;99.90
8896;DHT22;4484;48.928;10.066;2023-07-20T03:51:38;14.40;99.90
8896;DHT22;4484;48.928;10.066;2023-07-20T03:54:05;14.40;99.90
8896;DHT22;4484;48.928;10.066;2023-07-20T03:56:32;14.40;99.90
8896;DHT22;4484;48.928;10.066;2023-07-20T03:59:02;14.30;99.90
8896;DHT22;4484;48.928;10.066;2023-07-20T04:01:29;14.30;99.90
8896;DHT22;4484;48.928;10.066;2023-07-20T04:03:56;14.30;99.90
8896;DHT22;4484;48.928;10.066;2023-07-20T04:06:24;14.30;99.90
8896;DHT22;4484;48.928;10.066;2023-07-20T04:08:51;14.20;99.90
8896;DHT22;4484;48.928;10.066;2023-07-20T04:11:18;14.20;99.90
8896;DHT22;4484;48.928;10.066;2023-07-20T04:13:45;14.20;99.90
8896;DHT22;4484;48.928;10.066;2023-07-20T04:16:12;14.20;99.90
8896;DHT22;4484;48.928;10.066;2023-07-20T04:18:39;14.10;99.90
8896;DHT22;4484;48.928;10.066;2023-07-20T04:21:08;14.20;99.90
8896;DHT22;4484;48.928;10.066;2023-07-20T04:23:36;14.10;99.90
8896;DHT22;4484;48.928;10.066;2023-07-20T04:26:04;14.10;99.90
8896;DHT22;4484;48.928;10.066;2023-07-20T04:28:30;14.10;99.90
8896;DHT22;4484;48.928;10.066;2023-07-20T04:31:10;14.10;99.90
8896;DHT22;4484;48.928;10.066;2023-07-20T04:33:38;14.10;99.90
8896;DHT22;4484;48.928;10.066;2023-07-20T04:36:05;14.10;99.90
8896;DHT22;4484;48.928;10.066;2023-07-20T04:38:34;14.10;99.90
8896;DHT22;4484;48.928;10.066;2023-07-20T04:41:14;14.10;99.90
8896;DHT22;4484;48.928;10.066;2023-07-20T04:43:45;14.10;99.90
8896;DHT22;4484;48.928;10.066;2023-07-20T04:46:14;14.10;99.90
8896;DHT22;4484;48.928;10.066;2023-07-20T04:48:42;14.20;99.90
8896;DHT22;4484;48.928;10.066;2023-07-20T04:51:09;14.20;99.90
8896;DHT22;4484;48.928;10.066;2023-07-20T04:53:38;14.20;99.90
8896;DHT22;4484;48.928;10.066;2023-07-20T04:56:06;14.20;99.90
8896;DHT22;4484;48.928;10.066;2023-07-20T04:58:33;14.20;99.90
8896;DHT22;4484;48.928;10.066;2023-07-20T05:00:59;14.30;99.90
8896;DHT22;4484;48.928;10.066;2023-07-20T05:03:27;14.30;99.90
8896;DHT22;4484;48.928;10.066;2023-07-20T05:05:54;14.40;99.90
8896;DHT22;4484;48.928;10.066;2023-07-20T05:08:21;14.40;99.90
8896;DHT22;4484;48.928;10.066;2023-07-20T05:10:52;14.40;99.90
8896;DHT22;4484;48.928;10.066;2023-07-20T05:13:19;14.50;99.90
8896;DHT22;4484;48.928;10.066;2023-07-20T05:15:46;14.50;99.90
8896;DHT22;4484;48.928;10.066;2023-07-20T05:18:16;14.60;99.90
8896;DHT22;4484;48.928;10.066;2023-07-20T05:20:47;14.60;99.90
8896;DHT22;4484;48.928;10.066;2023-07-20T05:23:17;14.60;99.90
8896;DHT22;4484;48.928;10.066;2023-07-20T05:25:44;14.70;99.90
8896;DHT22;4484;48.928;10.066;2023-07-20T05:28:11;14.70;99.90
8896;DHT22;4484;48.928;10.066;2023-07-20T05:30:39;14.80;99.90
8896;DHT22;4484;48.928;10.066;2023-07-20T05:33:06;14.80;99.90
8896;DHT22;4484;48.928;10.066;2023-07-20T05:35:33;14.90;99.90
8896;DHT22;4484;48.928;10.066;2023-07-20T05:38:00;15.00;99.90
8896;DHT22;4484;48.928;10.066;2023-07-20T05:40:27;15.10;99.90
8896;DHT22;4484;48.928;10.066;2023-07-20T05:42:54;15.10;99.90
8896;DHT22;4484;48.928;10.066;2023-07-20T05:45:23;15.20;99.90
8896;DHT22;4484;48.928;10.066;2023-07-20T05:47:50;15.40;99.90
8896;DHT22;4484;48.928;10.066;2023-07-20T05:50:17;15.50;99.90
8896;DHT22;4484;48.928;10.066;2023-07-20T05:52:44;15.60;99.90
8896;DHT22;4484;48.928;10.066;2023-07-20T05:55:11;15.70;99.90
8896;DHT22;4484;48.928;10.066;2023-07-20T05:57:38;15.80;99.90
8896;DHT22;4484;48.928;10.066;2023-07-20T06:00:09;15.90;99.90
8896;DHT22;4484;48.928;10.066;2023-07-20T06:02:41;16.10;99.90
8896;DHT22;4484;48.928;10.066;2023-07-20T06:05:08;16.20;99.90
8896;DHT22;4484;48.928;10.066;2023-07-20T06:07:38;16.40;99.90
8896;DHT22;4484;48.928;10.066;2023-07-20T06:10:06;16.50;99.90
8896;DHT22;4484;48.928;10.066;2023-07-20T06:12:33;16.70;99.90
8896;DHT22;4484;48.928;10.066;2023-07-20T06:15:03;16.90;99.90
8896;DHT22;4484;48.928;10.066;2023-07-20T06:17:30;17.00;99.90
8896;DHT22;4484;48.928;10.066;2023-07-20T06:19:57;17.20;99.90
8896;DHT22;4484;48.928;10.066;2023-07-20T06:22:24;17.30;99.90
8896;DHT22;4484;48.928;10.066;2023-07-20T06:24:51;17.50;99.90
8896;DHT22;4484;48.928;10.066;2023-07-20T06:27:18;17.70;99.90
8896;DHT22;4484;48.928;10.066;2023-07-20T06:29:44;17.80;99.90
8896;DHT22;4484;48.928;10.066;2023-07-20T06:32:11;18.00;99.90
8896;DHT22;4484;48.928;10.066;2023-07-20T06:34:38;18.20;99.90
8896;DHT22;4484;48.928;10.066;2023-07-20T06:37:05;18.40;99.90
8896;DHT22;4484;48.928;10.066;2023-07-20T06:39:32;18.70;99.90
8896;DHT22;4484;48.928;10.066;2023-07-20T06:42:02;18.90;99.90
8896;DHT22;4484;48.928;10.066;2023-07-20T06:44:28;19.10;99.90
8896;DHT22;4484;48.928;10.066;2023-07-20T06:46:55;19.40;99.90
8896;DHT22;4484;48.928;10.066;2023-07-20T06:49:26;19.60;99.90
8896;DHT22;4484;48.928;10.066;2023-07-20T06:51:54;19.80;99.90
8896;DHT22;4484;48.928;10.066;2023-07-20T06:54:21;20.00;99.90
8896;DHT22;4484;48.928;10.066;2023-07-20T06:56:50;20.20;99.90
8896;DHT22;4484;48.928;10.066;2023-07-20T06:59:20;20.60;99.90
8896;DHT22;4484;48.928;10.066;2023-07-20T07:01:47;21.00;99.90
8896;DHT22;4484;48.928;10.066;2023-07-20T07:04:14;21.30;99.90
8896;DHT22;4484;48.928;10.066;2023-07-20T07:06:41;21.60;99.90
8896;DHT22;4484;48.928;10.066;2023-07-20T07:09:08;21.80;99.90
8896;DHT22;4484;48.928;10.066;2023-07-20T07:11:36;22.20;99.90
8896;DHT22;4484;48.928;10.066;2023-07-20T07:14:03;22.20;99.10
8896;DHT22;4484;48.928;10.066;2023-07-20T07:16:30;22.40;99.50
8896;DHT22;4484;48.928;10.066;2023-07-20T07:18:57;22.60;99.30
8896;DHT22;4484;48.928;10.066;2023-07-20T07:21:28;22.90;97.80
8896;DHT22;4484;48.928;10.066;2023-07-20T07:23:55;23.10;97.20
8896;DHT22;4484;48.928;10.066;2023-07-20T07:26:24;23.30;96.50
8896;DHT22;4484;48.928;10.066;2023-07-20T07:28:51;23.50;96.10
8896;DHT22;4484;48.928;10.066;2023-07-20T07:31:18;23.70;95.10
8896;DHT22;4484;48.928;10.066;2023-07-20T07:33:44;23.70;94.90
8896;DHT22;4484;48.928;10.066;2023-07-20T07:36:11;23.80;94.60
8896;DHT22;4484;48.928;10.066;2023-07-20T07:38:38;24.00;94.20
8896;DHT22;4484;48.928;10.066;2023-07-20T07:41:25;24.30;93.70
8896;DHT22;4484;48.928;10.066;2023-07-20T07:43:52;24.60;92.40
8896;DHT22;4484;48.928;10.066;2023-07-20T07:46:19;24.70;91.60
8896;DHT22;4484;48.928;10.066;2023-07-20T07:48:46;24.90;92.20
8896;DHT22;4484;48.928;10.066;2023-07-20T07:51:14;25.10;91.50
8896;DHT22;4484;48.928;10.066;2023-07-20T07:53:42;25.40;91.10
8896;DHT22;4484;48.928;10.066;2023-07-20T07:56:10;25.60;89.70
8896;DHT22;4484;48.928;10.066;2023-07-20T07:58:37;25.60;88.40
8896;DHT22;4484;48.928;10.066;2023-07-20T08:01:04;25.60;88.10
8896;DHT22;4484;48.928;10.066;2023-07-20T08:03:31;25.50;89.10
8896;DHT22;4484;48.928;10.066;2023-07-20T08:05:58;24.90;86.20
8896;DHT22;4484;48.928;10.066;2023-07-20T08:08:26;24.40;89.20
8896;DHT22;4484;48.928;10.066;2023-07-20T08:10:54;24.20;89.50
8896;DHT22;4484;48.928;10.066;2023-07-20T08:13:22;24.30;88.50
8896;DHT22;4484;48.928;10.066;2023-07-20T08:15:50;24.70;90.50
8896;DHT22;4484;48.928;10.066;2023-07-20T08:18:21;25.20;89.40
8896;DHT22;4484;48.928;10.066;2023-07-20T08:20:48;25.40;88.40
8896;DHT22;4484;48.928;10.066;2023-07-20T08:23:15;25.20;87.20
8896;DHT22;4484;48.928;10.066;2023-07-20T08:25:42;25.30;88.30
8896;DHT22;4484;48.928;10.066;2023-07-20T08:28:11;25.70;86.50
8896;DHT22;4484;48.928;10.066;2023-07-20T08:30:45;26.20;83.90
8896;DHT22;4484;48.928;10.066;2023-07-20T08:33:17;26.50;83.20
8896;DHT22;4484;48.928;10.066;2023-07-20T08:35:47;26.70;82.00
8896;DHT22;4484;48.928;10.066;2023-07-20T08:38:14;27.10;79.60
8896;DHT22;4484;48.928;10.066;2023-07-20T08:40:43;27.00;79.30
8896;DHT22;4484;48.928;10.066;2023-07-20T08:43:11;26.80;80.10
8896;DHT22;4484;48.928;10.066;2023-07-20T08:45:39;26.50;81.40
8896;DHT22;4484;48.928;10.066;2023-07-20T08:48:07;26.20;81.80
8896;DHT22;4484;48.928;10.066;2023-07-20T08:50:35;25.70;79.80
8896;DHT22;4484;48.928;10.066;2023-07-20T08:53:02;25.50;81.50
8896;DHT22;4484;48.928;10.066;2023-07-20T08:55:30;25.80;81.90
8896;DHT22;4484;48.928;10.066;2023-07-20T08:57:59;26.30;81.30
8896;DHT22;4484;48.928;10.066;2023-07-20T09:00:27;26.90;78.70
8896;DHT22;4484;48.928;10.066;2023-07-20T09:02:57;27.50;78.90
8896;DHT22;4484;48.928;10.066;2023-07-20T09:05:26;27.50;75.60
8896;DHT22;4484;48.928;10.066;2023-07-20T09:07:53;27.70;76.00
8896;DHT22;4484;48.928;10.066;2023-07-20T09:10:22;28.00;74.80
8896;DHT22;4484;48.928;10.066;2023-07-20T09:12:49;28.50;74.50
8896;DHT22;4484;48.928;10.066;2023-07-20T09:15:16;28.70;71.90
8896;DHT22;4484;48.928;10.066;2023-07-20T09:17:47;28.90;71.30
8896;DHT22;4484;48.928;10.066;2023-07-20T09:20:19;29.50;75.70
8896;DHT22;4484;48.928;10.066;2023-07-20T09:22:50;30.20;69.60
8896;DHT22;4484;48.928;10.066;2023-07-20T09:25:19;30.40;68.20
8896;DHT22;4484;48.928;10.066;2023-07-20T09:27:49;30.10;63.30
8896;DHT22;4484;48.928;10.066;2023-07-20T09:30:18;29.90;67.40
8896;DHT22;4484;48.928;10.066;2023-07-20T09:32:49;29.50;67.30
8896;DHT22;4484;48.928;10.066;2023-07-20T09:35:21;29.10;68.70
8896;DHT22;4484;48.928;10.066;2023-07-20T09:37:55;28.90;66.70
8896;DHT22;4484;48.928;10.066;2023-07-20T09:40:27;29.10;68.00
8896;DHT22;4484;48.928;10.066;2023-07-20T09:43:16;29.60;70.90
8896;DHT22;4484;48.928;10.066;2023-07-20T09:45:46;30.10;65.50
8896;DHT22;4484;48.928;10.066;2023-07-20T09:48:15;30.00;62.70
8896;DHT22;4484;48.928;10.066;2023-07-20T09:50:51;29.40;63.50
8896;DHT22;4484;48.928;10.066;2023-07-20T09:53:19;28.60;63.90
8896;DHT22;4484;48.928;10.066;2023-07-20T09:55:49;28.50;66.40
8896;DHT22;4484;48.928;10.066;2023-07-20T09:58:17;28.50;62.30
8896;DHT22;4484;48.928;10.066;2023-07-20T10:00:45;28.20;62.30
8896;DHT22;4484;48.928;10.066;2023-07-20T10:03:19;27.90;64.10
8896;DHT22;4484;48.928;10.066;2023-07-20T10:06:10;27.30;66.50
8896;DHT22;4484;48.928;10.066;2023-07-20T10:08:38;27.40;67.30
8896;DHT22;4484;48.928;10.066;2023-07-20T10:11:12;28.00;68.50
8896;DHT22;4484;48.928;10.066;2023-07-20T10:13:43;28.40;65.90
8896;DHT22;4484;48.928;10.066;2023-07-20T10:16:16;28.70;66.00
8896;DHT22;4484;48.928;10.066;2023-07-20T10:19:05;28.80;65.20
8896;DHT22;4484;48.928;10.066;2023-07-20T10:21:47;29.20;66.70
8896;DHT22;4484;48.928;10.066;2023-07-20T10:24:23;29.80;64.00
8896;DHT22;4484;48.928;10.066;2023-07-20T10:26:51;30.00;59.10
8896;DHT22;4484;48.928;10.066;2023-07-20T10:29:18;29.90;59.30
8896;DHT22;4484;48.928;10.066;2023-07-20T10:31:46;29.70;61.90
8896;DHT22;4484;48.928;10.066;2023-07-20T10:34:13;29.80;62.40
8896;DHT22;4484;48.928;10.066;2023-07-20T10:36:46;30.30;61.50
8896;DHT22;4484;48.928;10.066;2023-07-20T10:39:33;30.70;62.90
8896;DHT22;4484;48.928;10.066;2023-07-20T10:44:28;30.00;60.40
8896;DHT22;4484;48.928;10.066;2023-07-20T10:47:02;29.20;60.40
8896;DHT22;4484;48.928;10.066;2023-07-20T10:49:35;28.70;62.50
8896;DHT22;4484;48.928;10.066;2023-07-20T10:52:22;27.90;63.80
8896;DHT22;4484;48.928;10.066;2023-07-20T10:54:49;28.00;64.90
8896;DHT22;4484;48.928;10.066;2023-07-20T10:57:29;28.50;64.20
8896;DHT22;4484;48.928;10.066;2023-07-20T11:00:13;29.10;61.20
8896;DHT22;4484;48.928;10.066;2023-07-20T11:02:46;29.40;58.60
8896;DHT22;4484;48.928;10.066;2023-07-20T11:05:38;29.40;58.60
8896;DHT22;4484;48.928;10.066;2023-07-20T11:08:10;29.50;59.70
8896;DHT22;4484;48.928;10.066;2023-07-20T11:10:38;29.80;59.70
8896;DHT22;4484;48.928;10.066;2023-07-20T11:13:23;30.30;58.70
8896;DHT22;4484;48.928;10.066;2023-07-20T11:18:27;30.80;57.30
8896;DHT22;4484;48.928;10.066;2023-07-20T11:20:54;31.20;55.40
8896;DHT22;4484;48.928;10.066;2023-07-20T11:23:22;31.10;55.60
8896;DHT22;4484;48.928;10.066;2023-07-20T11:25:50;30.50;56.10
8896;DHT22;4484;48.928;10.066;2023-07-20T11:28:17;29.80;56.60
8896;DHT22;4484;48.928;10.066;2023-07-20T11:30:44;29.20;57.90
8896;DHT22;4484;48.928;10.066;2023-07-20T11:33:11;29.50;58.20
8896;DHT22;4484;48.928;10.066;2023-07-20T11:35:45;29.70;56.90
8896;DHT22;4484;48.928;10.066;2023-07-20T11:38:16;29.70;56.20
8896;DHT22;4484;48.928;10.066;2023-07-20T11:40:44;30.10;57.60
8896;DHT22;4484;48.928;10.066;2023-07-20T11:43:12;30.60;57.50
8896;DHT22;4484;48.928;10.066;2023-07-20T11:45:42;31.30;56.70
8896;DHT22;4484;48.928;10.066;2023-07-20T11:48:17;31.80;54.90
8896;DHT22;4484;48.928;10.066;2023-07-20T11:50:44;32.40;56.70
8896;DHT22;4484;48.928;10.066;2023-07-20T11:53:11;32.00;53.10
8896;DHT22;4484;48.928;10.066;2023-07-20T11:55:40;32.20;55.70
8896;DHT22;4484;48.928;10.066;2023-07-20T11:58:08;31.50;52.10
8896;DHT22;4484;48.928;10.066;2023-07-20T12:00:37;30.90;53.60
8896;DHT22;4484;48.928;10.066;2023-07-20T12:03:06;30.20;52.70
8896;DHT22;4484;48.928;10.066;2023-07-20T12:05:40;30.00;54.60
8896;DHT22;4484;48.928;10.066;2023-07-20T12:08:10;30.50;54.20
8896;DHT22;4484;48.928;10.066;2023-07-20T12:10:39;30.60;51.00
8896;DHT22;4484;48.928;10.066;2023-07-20T12:13:10;30.40;52.10
8896;DHT22;4484;48.928;10.066;2023-07-20T12:15:38;29.60;52.00
8896;DHT22;4484;48.928;10.066;2023-07-20T12:18:05;29.00;54.10
8896;DHT22;4484;48.928;10.066;2023-07-20T12:23:09;29.50;52.40
8896;DHT22;4484;48.928;10.066;2023-07-20T12:25:41;29.60;51.30
8896;DHT22;4484;48.928;10.066;2023-07-20T12:28:10;29.10;52.50
8896;DHT22;4484;48.928;10.066;2023-07-20T12:30:37;28.70;53.80
8896;DHT22;4484;48.928;10.066;2023-07-20T12:33:04;28.70;54.90
8896;DHT22;4484;48.928;10.066;2023-07-20T12:35:32;28.90;54.70
8896;DHT22;4484;48.928;10.066;2023-07-20T12:37:59;29.50;53.50
8896;DHT22;4484;48.928;10.066;2023-07-20T12:40:26;30.20;52.20
8896;DHT22;4484;48.928;10.066;2023-07-20T12:42:54;30.70;52.30
8896;DHT22;4484;48.928;10.066;2023-07-20T12:45:21;31.10;51.10
8896;DHT22;4484;48.928;10.066;2023-07-20T12:47:49;31.30;50.10
8896;DHT22;4484;48.928;10.066;2023-07-20T12:50:16;30.80;50.50
8896;DHT22;4484;48.928;10.066;2023-07-20T12:52:43;30.30;50.30
8896;DHT22;4484;48.928;10.066;2023-07-20T12:55:10;30.40;49.50
8896;DHT22;4484;48.928;10.066;2023-07-20T12:57:38;30.50;52.50
8896;DHT22;4484;48.928;10.066;2023-07-20T13:00:07;30.70;52.30
8896;DHT22;4484;48.928;10.066;2023-07-20T13:02:38;31.40;53.10
8896;DHT22;4484;48.928;10.066;2023-07-20T13:05:05;32.00;50.00
8896;DHT22;4484;48.928;10.066;2023-07-20T13:07:34;32.20;50.70
8896;DHT22;4484;48.928;10.066;2023-07-20T13:10:05;32.50;50.80
8896;DHT22;4484;48.928;10.066;2023-07-20T13:12:33;32.20;48.70
8896;DHT22;4484;48.928;10.066;2023-07-20T13:15:02;32.00;50.50
8896;DHT22;4484;48.928;10.066;2023-07-20T13:17:37;32.00;47.90
8896;DHT22;4484;48.928;10.066;2023-07-20T13:20:06;31.80;50.40
8896;DHT22;4484;48.928;10.066;2023-07-20T13:22:34;31.90;49.60
8896;DHT22;4484;48.928;10.066;2023-07-20T13:25:02;32.20;50.60
8896;DHT22;4484;48.928;10.066;2023-07-20T13:27:29;32.20;48.10
8896;DHT22;4484;48.928;10.066;2023-07-20T13:29:59;32.20;49.60
8896;DHT22;4484;48.928;10.066;2023-07-20T13:32:29;32.20;48.00
8896;DHT22;4484;48.928;10.066;2023-07-20T13:35:00;31.50;48.80
8896;DHT22;4484;48.928;10.066;2023-07-20T13:37:27;30.70;49.20
8896;DHT22;4484;48.928;10.066;2023-07-20T13:39:54;30.30;50.30
8896;DHT22;4484;48.928;10.066;2023-07-20T13:42:23;29.80;50.70
8896;DHT22;4484;48.928;10.066;2023-07-20T13:44:50;30.10;52.80
8896;DHT22;4484;48.928;10.066;2023-07-20T13:47:16;30.50;50.40
8896;DHT22;4484;48.928;10.066;2023-07-20T13:49:47;30.20;50.00
8896;DHT22;4484;48.928;10.066;2023-07-20T13:52:15;29.60;49.60
8896;DHT22;4484;48.928;10.066;2023-07-20T13:54:45;29.20;49.50
8896;DHT22;4484;48.928;10.066;2023-07-20T13:57:16;29.30;50.80
8896;DHT22;4484;48.928;10.066;2023-07-20T13:59:43;29.80;52.10
8896;DHT22;4484;48.928;10.066;2023-07-20T14:02:10;30.30;51.50
8896;DHT22;4484;48.928;10.066;2023-07-20T14:04:40;30.80;50.20
8896;DHT22;4484;48.928;10.066;2023-07-20T14:07:08;31.00;49.90
8896;DHT22;4484;48.928;10.066;2023-07-20T14:09:36;30.80;48.40
8896;DHT22;4484;48.928;10.066;2023-07-20T14:12:03;30.80;50.40
8896;DHT22;4484;48.928;10.066;2023-07-20T14:14:33;31.00;49.00
8896;DHT22;4484;48.928;10.066;2023-07-20T14:17:00;31.00;49.60
8896;DHT22;4484;48.928;10.066;2023-07-20T14:19:27;31.10;48.00
8896;DHT22;4484;48.928;10.066;2023-07-20T14:21:54;30.90;48.20
8896;DHT22;4484;48.928;10.066;2023-07-20T14:24:21;30.80;49.30
8896;DHT22;4484;48.928;10.066;2023-07-20T14:26:48;30.80;50.10
8896;DHT22;4484;48.928;10.066;2023-07-20T14:29:18;30.90;49.30
8896;DHT22;4484;48.928;10.066;2023-07-20T14:31:45;31.10;49.30
8896;DHT22;4484;48.928;10.066;2023-07-20T14:34:19;30.90;48.70
8896;DHT22;4484;48.928;10.066;2023-07-20T14:36:46;30.90;49.70
8896;DHT22;4484;48.928;10.066;2023-07-20T14:39:13;30.80;47.20
8896;DHT22;4484;48.928;10.066;2023-07-20T14:41:40;30.70;46.20
8896;DHT22;4484;48.928;10.066;2023-07-20T14:44:07;30.40;46.70
8896;DHT22;4484;48.928;10.066;2023-07-20T14:46:33;30.20;48.50
8896;DHT22;4484;48.928;10.066;2023-07-20T14:49:00;30.10;46.50
8896;DHT22;4484;48.928;10.066;2023-07-20T14:51:28;30.20;47.90
8896;DHT22;4484;48.928;10.066;2023-07-20T14:54:02;30.20;48.20
8896;DHT22;4484;48.928;10.066;2023-07-20T14:56:29;30.00;48.40
8896;DHT22;4484;48.928;10.066;2023-07-20T14:58:56;30.00;48.20
8896;DHT22;4484;48.928;10.066;2023-07-20T15:01:24;30.10;49.50
8896;DHT22;4484;48.928;10.066;2023-07-20T15:03:52;30.10;49.10
8896;DHT22;4484;48.928;10.066;2023-07-20T15:06:24;30.20;48.00
8896;DHT22;4484;48.928;10.066;2023-07-20T15:08:52;30.10;49.90
8896;DHT22;4484;48.928;10.066;2023-07-20T15:11:19;30.00;50.10
8896;DHT22;4484;48.928;10.066;2023-07-20T15:13:46;30.00;50.10
8896;DHT22;4484;48.928;10.066;2023-07-20T15:16:12;30.00;48.20
8896;DHT22;4484;48.928;10.066;2023-07-20T15:18:39;29.50;48.10
8896;DHT22;4484;48.928;10.066;2023-07-20T15:21:15;29.30;49.20
8896;DHT22;4484;48.928;10.066;2023-07-20T15:23:43;29.10;49.20
8896;DHT22;4484;48.928;10.066;2023-07-20T15:26:11;29.00;49.70
8896;DHT22;4484;48.928;10.066;2023-07-20T15:28:38;28.90;49.80
8896;DHT22;4484;48.928;10.066;2023-07-20T15:31:05;28.70;49.30
8896;DHT22;4484;48.928;10.066;2023-07-20T15:33:32;28.40;51.20
8896;DHT22;4484;48.928;10.066;2023-07-20T15:35:59;28.30;50.40
8896;DHT22;4484;48.928;10.066;2023-07-20T15:38:26;28.00;50.80
8896;DHT22;4484;48.928;10.066;2023-07-20T15:40:53;27.90;51.50
8896;DHT22;4484;48.928;10.066;2023-07-20T15:43:22;27.90;52.20
8896;DHT22;4484;48.928;10.066;2023-07-20T15:45:49;27.90;50.20
8896;DHT22;4484;48.928;10.066;2023-07-20T15:48:18;27.90;51.00
8896;DHT22;4484;48.928;10.066;2023-07-20T15:50:48;27.80;50.70
8896;DHT22;4484;48.928;10.066;2023-07-20T15:53:15;27.60;50.00
8896;DHT22;4484;48.928;10.066;2023-07-20T15:55:42;27.50;50.60
8896;DHT22;4484;48.928;10.066;2023-07-20T15:58:09;27.40;50.90
8896;DHT22;4484;48.928;10.066;2023-07-20T16:00:35;27.50;51.60
8896;DHT22;4484;48.928;10.066;2023-07-20T16:03:02;27.50;51.50
8896;DHT22;4484;48.928;10.066;2023-07-20T16:05:29;27.40;50.50
8896;DHT22;4484;48.928;10.066;2023-07-20T16:07:58;27.40;51.90
8896;DHT22;4484;48.928;10.066;2023-07-20T16:10:25;27.50;53.10
8896;DHT22;4484;48.928;10.066;2023-07-20T16:12:52;27.60;54.00